Time;durP1;ratioP1;P1;durP2;ratioP2;P2;SDS_P1;SDS_P2;PMS_P1;PMS_P2;Temp;Humidity;BMP_temperature;BMP_pressure;BME280_temperature;BME280_humidity;BME280_pressure;Samples;Min_cycle;Max_cycle;Signal;HPM_P1;HPM_P2
2021/12/07 00:04:04;;;;;;;34.47;14.48;;;;;;;-0.04;100.00;100372.56;5072078;28;20091;-79
2021/12/07 00:09:51;;;;;;;29.83;13.25;;;;;;;0.11;100.00;100382.50;5071820;28;20598;-77
2021/12/07 00:15:38;;;;;;;33.13;14.55;;;;;;;0.08;100.00;100391.50;5071835;28;20035;-77
2021/12/07 00:21:25;;;;;;;43.28;18.02;;;;;;;0.20;100.00;100398.13;5071978;28;20047;-76
2021/12/07 00:27:13;;;;;;;38.20;15.43;;;;;;;0.29;100.00;100401.63;5072211;28;20430;-75
2021/12/07 00:33:13;;;;;;;32.30;14.88;;;;;;;0.43;100.00;100410.72;5071960;28;20551;-74
2021/12/07 00:35:39;;;;;;;32.90;16.58;;;;;;;0.48;100.00;100408.41;5071686;28;20449;-75
2021/12/07 00:44:48;;;;;;;40.10;17.38;;;;;;;0.59;100.00;100432.66;5074921;28;20047;-75
2021/12/07 00:47:13;;;;;;;44.92;18.95;;;;;;;0.52;100.00;100420.25;5074817;28;20028;-76
2021/12/07 00:53:02;;;;;;;39.67;16.60;;;;;;;0.71;100.00;100438.41;5074992;28;20531;-74
2021/12/07 00:58:51;;;;;;;40.88;19.02;;;;;;;0.84;100.00;100433.50;5075228;28;20615;-75
2021/12/07 01:04:39;;;;;;;34.78;16.00;;;;;;;0.91;100.00;100446.88;5074939;28;20526;-75
2021/12/07 01:25:25;;;;;;;39.80;15.93;;;;;;;1.53;100.00;100492.03;5077631;28;20491;-75
2021/12/07 01:31:20;;;;;;;39.72;17.67;;;;;;;1.61;100.00;100510.47;5074517;28;20507;-77
2021/12/07 02:01:12;;;;;;;36.55;13.52;;;;;;;1.74;100.00;100539.00;5074168;28;20488;-78
2021/12/07 02:07:00;;;;;;;40.53;13.38;;;;;;;1.76;100.00;100545.75;5074257;28;20175;-77
2021/12/07 02:12:48;;;;;;;31.63;11.35;;;;;;;1.76;100.00;100552.84;5073655;28;20090;-77
2021/12/07 02:18:35;;;;;;;31.60;11.25;;;;;;;1.76;100.00;100558.09;5073637;28;20423;-77
2021/12/07 02:24:24;;;;;;;32.90;9.82;;;;;;;1.87;100.00;100568.31;5073724;28;20503;-76
2021/12/07 02:30:14;;;;;;;27.25;8.70;;;;;;;1.91;100.00;100588.09;5073676;28;20082;-76
2021/12/07 02:39:35;;;;;;;18.02;5.45;;;;;;;1.96;100.00;100588.41;5073721;28;20051;-75
2021/12/07 02:45:23;;;;;;;30.20;6.57;;;;;;;2.03;100.00;100601.78;5073629;28;20051;-77
2021/12/07 02:51:10;;;;;;;21.33;6.30;;;;;;;1.94;100.00;100611.47;5073169;28;20103;-76
2021/12/07 02:56:57;;;;;;;21.90;5.38;;;;;;;1.86;100.00;100614.13;5073274;28;20068;-77
2021/12/07 03:02:54;;;;;;;26.08;7.10;;;;;;;1.88;100.00;100625.31;5072015;28;20440;-75
2021/12/07 03:09:31;;;;;;;22.13;5.13;;;;;;;1.91;100.00;100640.81;5073053;28;20083;-75
2021/12/07 03:27:18;;;;;;;18.83;3.97;;;;;;;1.84;100.00;100655.63;5073183;28;20098;-75
2021/12/07 03:33:05;;;;;;;28.98;5.70;;;;;;;1.73;100.00;100643.56;5072402;28;20047;-75
2021/12/07 03:38:52;;;;;;;12.93;3.95;;;;;;;1.73;100.00;100667.28;5073954;28;20413;-74
2021/12/07 03:44:39;;;;;;;21.55;5.07;;;;;;;1.70;100.00;100674.69;5072503;28;20086;-75
2021/12/07 03:50:26;;;;;;;19.58;3.80;;;;;;;1.73;100.00;100691.00;5072243;28;20444;-75
2021/12/07 03:56:15;;;;;;;17.83;4.50;;;;;;;1.68;100.00;100703.00;5071990;28;20044;-75
2021/12/07 04:02:03;;;;;;;25.10;4.65;;;;;;;1.68;100.00;100703.00;5072317;28;20393;-75
2021/12/07 04:07:51;;;;;;;15.55;4.97;;;;;;;1.69;100.00;100702.03;5072193;28;20040;-75
2021/12/07 04:13:40;;;;;;;23.45;5.30;;;;;;;1.57;100.00;100701.50;5073656;28;20194;-75
2021/12/07 04:19:27;;;;;;;21.42;5.55;;;;;;;1.44;100.00;100704.56;5078922;28;20044;-74
2021/12/07 04:25:16;;;;;;;16.55;4.28;;;;;;;1.43;100.00;100704.72;5078401;28;20719;-75
2021/12/07 04:27:43;;;;;;;16.17;4.18;;;;;;;1.42;100.00;100718.88;5063458;28;20051;-73
2021/12/07 04:33:30;;;;;;;24.35;4.20;;;;;;;1.26;100.00;100710.91;5078657;28;20138;-74
2021/12/07 04:39:17;;;;;;;22.48;3.97;;;;;;;1.17;100.00;100704.78;5078645;28;20063;-76
2021/12/07 04:45:09;;;;;;;21.05;5.30;;;;;;;1.22;100.00;100734.94;5078525;28;20038;-76
2021/12/07 05:03:11;;;;;;;15.07;3.28;;;;;;;1.37;100.00;100736.97;5078363;28;20048;-74
2021/12/07 05:09:07;;;;;;;19.60;5.68;;;;;;;1.38;100.00;100739.44;5078434;28;20063;-73
2021/12/07 05:15:07;;;;;;;22.55;5.85;;;;;;;1.38;100.00;100765.78;5078032;28;20106;-74
2021/12/07 05:39:11;;;;;;;13.88;4.47;;;;;;;1.04;100.00;100785.97;5074543;28;20090;-74
2021/12/07 05:44:58;;;;;;;26.08;6.20;;;;;;;0.98;100.00;100799.75;5074715;28;20529;-74
2021/12/07 05:50:45;;;;;;;17.45;4.05;;;;;;;0.96;100.00;100818.34;5074190;28;20040;-74
2021/12/07 05:56:32;;;;;;;22.10;4.50;;;;;;;0.95;100.00;100813.22;5074359;28;20080;-76
2021/12/07 06:02:19;;;;;;;21.92;5.25;;;;;;;1.00;100.00;100840.75;5074135;28;20059;-75
2021/12/07 06:08:07;;;;;;;28.65;8.05;;;;;;;0.90;100.00;100840.84;5073979;28;20063;-74
2021/12/07 06:13:54;;;;;;;27.98;8.60;;;;;;;0.74;100.00;100845.94;5073775;28;20090;-73
2021/12/07 06:19:41;;;;;;;31.55;8.75;;;;;;;0.60;100.00;100841.22;5073926;28;20523;-73
2021/12/07 06:25:29;;;;;;;33.72;9.25;;;;;;;0.51;100.00;100835.03;5073834;28;20090;-74
2021/12/07 06:31:16;;;;;;;35.83;9.50;;;;;;;0.42;100.00;100845.63;5073720;28;20542;-76
2021/12/07 06:37:04;;;;;;;27.83;10.30;;;;;;;0.37;100.00;100853.97;5073639;28;20060;-75
2021/12/07 06:42:51;;;;;;;31.08;12.32;;;;;;;0.38;100.00;100855.59;5073437;28;20059;-75
2021/12/07 06:48:38;;;;;;;59.50;15.25;;;;;;;0.28;100.00;100846.94;5073498;28;20083;-75
2021/12/07 06:54:25;;;;;;;47.15;16.05;;;;;;;0.23;100.00;100846.56;5073298;28;20052;-74
2021/12/07 07:00:14;;;;;;;47.95;16.65;;;;;;;0.35;100.00;100857.72;5073125;28;20048;-75
2021/12/07 07:06:02;;;;;;;42.05;12.95;;;;;;;0.29;100.00;100854.69;5073030;28;20598;-74
2021/12/07 07:11:49;;;;;;;49.22;14.68;;;;;;;0.40;100.00;100876.50;5072859;28;20031;-73
2021/12/07 07:17:36;;;;;;;62.05;16.48;;;;;;;0.43;100.00;100869.13;5072931;28;20047;-74
2021/12/07 07:20:04;;;;;;;35.05;11.88;;;;;;;0.39;100.00;100862.53;5072684;28;20021;-75
2021/12/07 07:29:52;;;;;;;56.78;15.82;;;;;;;0.47;100.00;100875.75;5072842;28;20455;-75
2021/12/07 07:35:39;;;;;;;43.00;11.38;;;;;;;0.50;100.00;100890.41;5072849;28;20123;-74
2021/12/07 07:48:03;;;;;;;45.42;14.63;;;;;;;0.61;100.00;100884.97;5072290;28;20071;-74
2021/12/07 07:50:29;;;;;;;37.70;13.13;;;;;;;0.69;100.00;100876.31;5074859;28;20072;-75
2021/12/07 07:52:55;;;;;;;55.78;18.58;;;;;;;0.71;100.00;100877.00;5072040;28;20091;-75
2021/12/07 07:55:20;;;;;;;63.72;19.42;;;;;;;0.76;100.00;100872.94;5056841;28;20046;-75
2021/12/07 07:57:45;;;;;;;35.15;12.55;;;;;;;0.77;100.00;100877.22;5072308;28;20032;-74
2021/12/07 08:00:15;;;;;;;46.65;14.15;;;;;;;0.83;100.00;100863.44;5054179;28;20028;-75
2021/12/07 08:06:02;;;;;;;51.08;17.15;;;;;;;1.06;100.00;100868.25;5072153;28;20043;-75
2021/12/07 08:11:50;;;;;;;40.05;15.20;;;;;;;1.16;100.00;100866.41;5072254;28;20451;-75
2021/12/07 08:17:37;;;;;;;40.17;13.07;;;;;;;1.65;100.00;100880.72;5072489;28;20052;-75
2021/12/07 08:23:24;;;;;;;39.53;12.52;;;;;;;2.29;100.00;100876.75;5072086;28;20452;-75
2021/12/07 08:29:17;;;;;;;24.50;8.57;;;;;;;2.10;100.00;100880.50;5072135;28;20051;-74
2021/12/07 08:35:04;;;;;;;26.33;8.80;;;;;;;1.83;100.00;100907.03;5072227;28;20135;-75
2021/12/07 08:44:13;;;;;;;20.33;8.35;;;;;;;1.47;100.00;100896.59;5071889;28;20106;-76
2021/12/07 08:50:03;;;;;;;22.38;7.68;;;;;;;1.73;100.00;100898.38;5071409;28;20086;-75
2021/12/07 09:01:58;;;;;;;17.63;7.00;;;;;;;3.16;100.00;100882.53;5073867;28;20079;-75
2021/12/07 09:07:46;;;;;;;16.23;5.82;;;;;;;3.52;100.00;100880.41;5075572;28;20494;-75
2021/12/07 09:13:34;;;;;;;13.10;4.53;;;;;;;4.32;100.00;100879.31;5074771;28;20099;-75
2021/12/07 09:19:22;;;;;;;9.88;3.53;;;;;;;4.16;100.00;100866.19;5074896;28;20499;-76
2021/12/07 09:25:10;;;;;;;15.07;5.47;;;;;;;3.42;100.00;100888.47;5074882;28;20039;-76
2021/12/07 09:27:35;;;;;;;15.43;5.20;;;;;;;3.35;100.00;100880.41;5077408;28;20036;-75
2021/12/07 09:33:25;;;;;;;19.20;5.72;;;;;;;4.29;100.00;100871.72;5074713;28;20492;-76
2021/12/07 09:39:16;;;;;;;19.63;5.22;;;;;;;5.17;100.00;100868.69;5076430;28;20039;-75
2021/12/07 09:45:07;;;;;;;16.98;5.78;;;;;;;5.51;100.00;100870.91;5074384;28;20511;-76
2021/12/07 09:50:55;;;;;;;11.82;5.07;;;;;;;5.74;100.00;100873.47;5074204;28;20239;-76
2021/12/07 09:56:42;;;;;;;11.63;4.45;;;;;;;5.15;100.00;100880.47;5076489;28;20957;-75
2021/12/07 10:02:29;;;;;;;12.48;5.13;;;;;;;5.24;100.00;100874.97;5074242;28;20539;-74
2021/12/07 10:04:54;;;;;;;21.25;6.78;;;;;;;5.88;100.00;100863.91;5076757;28;20032;-75
2021/12/07 10:07:20;;;;;;;18.83;6.10;;;;;;;6.08;99.93;100870.34;5073894;28;20036;-75
2021/12/07 10:09:47;;;;;;;19.55;6.15;;;;;;;5.98;99.69;100859.16;5058838;28;20537;-75
2021/12/07 10:12:17;;;;;;;18.83;6.53;;;;;;;6.08;100.00;100864.22;5055269;28;20042;-74
2021/12/07 10:18:19;;;;;;;17.40;5.25;;;;;;;5.65;100.00;100865.78;5074000;28;20702;-75
2021/12/07 10:24:09;;;;;;;21.38;5.40;;;;;;;5.48;100.00;100854.50;5074024;28;20494;-76
2021/12/07 10:26:42;;;;;;;21.65;6.63;;;;;;;5.83;100.00;100856.50;5073686;28;20016;-75
2021/12/07 10:36:40;;;;;;;16.67;6.03;;;;;;;6.37;97.25;100850.91;5073659;28;20397;-75
2021/12/07 10:39:26;;;;;;;20.58;5.65;;;;;;;5.53;100.00;100849.50;5076365;28;20039;-75
2021/12/07 10:45:12;;;;;;;16.15;4.97;;;;;;;4.94;100.00;100830.81;5073209;28;20062;-75
2021/12/07 10:47:38;;;;;;;21.98;6.70;;;;;;;4.88;100.00;100819.06;5055115;28;20568;-74
2021/12/07 10:53:34;;;;;;;17.45;5.80;;;;;;;5.78;100.00;100804.97;5073664;28;20070;-74
2021/12/07 10:59:21;;;;;;;17.45;6.10;;;;;;;6.29;100.00;100797.88;5072980;28;20112;-75
2021/12/07 11:05:14;;;;;;;15.75;5.60;;;;;;;5.24;100.00;100790.13;5073226;28;20047;-74
2021/12/07 11:07:39;;;;;;;20.88;5.55;;;;;;;4.90;100.00;100765.91;5072924;28;20029;-75
2021/12/07 11:13:36;;;;;;;16.90;5.45;;;;;;;5.55;100.00;100752.03;5073235;28;20044;-77
2021/12/07 11:19:23;;;;;;;16.83;5.53;;;;;;;4.87;100.00;100745.06;5072849;28;20071;-77
2021/12/07 11:21:49;;;;;;;22.10;6.00;;;;;;;5.49;100.00;100752.75;5057881;28;20439;-75
2021/12/07 11:24:15;;;;;;;17.52;5.45;;;;;;;5.95;100.00;100756.03;5071548;28;20037;-75
2021/12/07 11:36:18;;;;;;;23.92;6.75;;;;;;;6.17;98.76;100740.97;5072977;28;20079;-76
2021/12/07 11:38:44;;;;;;;22.20;6.78;;;;;;;6.30;94.27;100743.75;5075262;28;20051;-75
2021/12/07 11:44:34;;;;;;;17.60;5.85;;;;;;;6.89;93.72;100753.28;5073304;28;20051;-76
2021/12/07 11:50:43;;;;;;;20.90;7.07;;;;;;;6.53;90.02;100738.28;5072510;28;20530;-74
2021/12/07 11:56:31;;;;;;;25.35;6.57;;;;;;;6.64;94.39;100732.44;5072486;28;20051;-75
2021/12/07 12:02:18;;;;;;;23.92;8.13;;;;;;;6.49;90.92;100727.22;5072356;28;20082;-75
2021/12/07 12:08:09;;;;;;;23.65;6.55;;;;;;;7.17;87.07;100686.84;5072145;28;20048;-75
2021/12/07 12:14:27;;;;;;;21.52;5.63;;;;;;;6.69;90.94;100705.31;5072194;28;20051;-76
2021/12/07 12:20:42;;;;;;;18.13;5.03;;;;;;;6.76;87.88;100685.75;5071893;28;20039;-75
2021/12/07 12:26:30;;;;;;;21.25;6.25;;;;;;;6.31;87.92;100680.84;5071738;28;20127;-76
2021/12/07 12:32:35;;;;;;;20.42;4.63;;;;;;;6.45;91.99;100659.56;5071682;28;20047;-75
2021/12/07 12:38:25;;;;;;;22.02;5.70;;;;;;;6.65;90.01;100650.91;5075036;28;20087;-75
2021/12/07 12:44:15;;;;;;;19.65;5.28;;;;;;;6.46;88.95;100655.06;5075416;28;20046;-75
2021/12/07 12:46:41;;;;;;;17.85;5.38;;;;;;;6.19;90.26;100624.81;5077983;28;20045;-76
2021/12/07 12:56:19;;;;;;;13.50;3.92;;;;;;;5.86;93.36;100588.13;5075297;28;20035;-75
2021/12/07 13:02:06;;;;;;;21.92;4.88;;;;;;;5.70;93.62;100569.78;5075212;28;20054;-75
2021/12/07 13:08:11;;;;;;;17.67;4.47;;;;;;;5.60;94.47;100556.84;5075081;28;20128;-76
2021/12/07 13:11:03;;;;;;;20.17;5.25;;;;;;;5.49;96.90;100541.44;5077787;28;20603;-77
2021/12/07 13:16:59;;;;;;;11.48;2.92;;;;;;;5.34;97.20;100515.97;5074941;28;20055;-75
2021/12/07 13:23:16;;;;;;;14.82;3.35;;;;;;;5.25;96.17;100520.59;5074843;28;20392;-77
2021/12/07 13:29:11;;;;;;;15.15;3.40;;;;;;;5.02;99.33;100504.81;5074954;28;20055;-75
2021/12/07 13:35:01;;;;;;;14.05;3.22;;;;;;;5.07;98.10;100502.44;5074721;28;20424;-75
2021/12/07 13:40:51;;;;;;;11.18;3.63;;;;;;;5.15;97.54;100496.19;5074564;28;20153;-76
2021/12/07 13:46:38;;;;;;;13.30;3.80;;;;;;;5.11;97.00;100482.50;5073618;28;20559;-75
2021/12/07 13:52:32;;;;;;;14.73;4.25;;;;;;;4.97;99.29;100478.09;5074112;28;20054;-76
2021/12/07 13:58:19;;;;;;;13.32;3.75;;;;;;;4.87;99.66;100457.16;5074539;28;20143;-76
2021/12/07 14:04:07;;;;;;;13.88;3.35;;;;;;;4.75;100.00;100456.00;5073993;28;20121;-75
2021/12/07 14:09:54;;;;;;;9.60;3.38;;;;;;;4.72;100.00;100437.84;5074125;28;20377;-74
2021/12/07 14:15:45;;;;;;;21.30;4.60;;;;;;;4.61;100.00;100433.84;5074080;28;20070;-74
2021/12/07 14:21:32;;;;;;;15.07;4.03;;;;;;;4.51;100.00;100417.44;5073715;28;20098;-74
2021/12/07 14:27:21;;;;;;;20.80;5.03;;;;;;;4.48;100.00;100412.50;5074005;28;20047;-74
2021/12/07 14:33:08;;;;;;;16.73;4.35;;;;;;;4.41;100.00;100418.72;5073394;28;20040;-74
2021/12/07 14:38:59;;;;;;;16.00;3.60;;;;;;;4.40;100.00;100420.56;5073612;28;20213;-74
2021/12/07 14:44:52;;;;;;;17.55;3.83;;;;;;;4.31;100.00;100401.28;5073465;28;20167;-76
2021/12/07 14:50:38;;;;;;;19.88;4.90;;;;;;;4.28;100.00;100383.13;5073550;28;20523;-76
2021/12/07 14:56:28;;;;;;;10.80;3.70;;;;;;;4.15;100.00;100363.63;5073201;28;20035;-74
2021/12/07 15:02:15;;;;;;;16.20;5.15;;;;;;;4.13;100.00;100382.34;5073139;28;20082;-76
2021/12/07 15:08:04;;;;;;;10.10;4.35;;;;;;;4.20;100.00;100354.13;5073197;28;20087;-76
2021/12/07 15:13:51;;;;;;;12.88;4.50;;;;;;;4.04;100.00;100346.38;5073068;28;20047;-75
2021/12/07 15:19:42;;;;;;;16.92;3.70;;;;;;;4.03;100.00;100337.63;5072858;28;20102;-75
2021/12/07 15:22:07;;;;;;;21.20;4.40;;;;;;;3.97;100.00;100330.44;5072586;28;20028;-76
2021/12/07 15:24:36;;;;;;;12.13;3.67;;;;;;;3.89;100.00;100327.91;5072876;28;20031;-76
2021/12/07 15:33:49;;;;;;;19.15;4.05;;;;;;;3.87;100.00;100308.75;5072675;28;20059;-74
2021/12/07 15:36:21;;;;;;;20.23;3.75;;;;;;;3.91;100.00;100315.31;5072385;28;20036;-74
2021/12/07 15:38:48;;;;;;;12.88;4.38;;;;;;;3.98;100.00;100324.13;5075265;28;20079;-74
2021/12/07 15:44:41;;;;;;;10.00;3.97;;;;;;;4.05;100.00;100300.44;5072190;28;20114;-76
2021/12/07 15:50:29;;;;;;;10.95;3.70;;;;;;;4.13;99.66;100271.22;5071825;28;20825;-74
2021/12/07 15:52:58;;;;;;;12.85;4.03;;;;;;;4.11;99.61;100262.66;5071624;28;20032;-74
2021/12/07 15:58:47;;;;;;;10.48;3.13;;;;;;;4.08;100.00;100256.91;5071793;28;20039;-73
2021/12/07 16:04:38;;;;;;;8.20;3.17;;;;;;;4.00;100.00;100224.25;5071835;28;20039;-74
2021/12/07 16:07:17;;;;;;;14.32;3.28;;;;;;;4.03;100.00;100210.66;5056719;28;20047;-74
2021/12/07 16:09:42;;;;;;;16.17;4.68;;;;;;;3.98;100.00;100189.25;5070948;28;20103;-74
2021/12/07 16:12:16;;;;;;;12.00;4.38;;;;;;;3.92;100.00;100190.00;5056509;28;20055;-77
2021/12/07 16:14:42;;;;;;;17.77;6.07;;;;;;;3.97;99.93;100192.91;5071369;28;20029;-74
2021/12/07 16:20:30;;;;;;;12.00;3.58;;;;;;;3.88;100.00;100164.94;5071307;28;20043;-75
2021/12/07 16:22:55;;;;;;;17.08;5.03;;;;;;;3.93;100.00;100159.91;5074318;28;20036;-74
2021/12/07 16:28:46;;;;;;;12.35;4.13;;;;;;;3.90;100.00;100140.94;5074773;28;20096;-76
2021/12/07 16:34:33;;;;;;;15.65;5.50;;;;;;;3.88;99.77;100135.84;5071593;28;20047;-75
2021/12/07 16:36:58;;;;;;;11.35;3.83;;;;;;;3.92;99.39;100145.03;5071111;28;20632;-74
2021/12/07 16:39:24;;;;;;;13.18;4.00;;;;;;;3.89;100.00;100121.63;5071035;28;20476;-75
2021/12/07 16:45:11;;;;;;;10.63;3.88;;;;;;;3.81;100.00;100087.38;5071544;28;20048;-74
2021/12/07 16:50:59;;;;;;;13.80;4.20;;;;;;;3.70;100.00;100042.91;5073465;28;20051;-73
2021/12/07 16:56:47;;;;;;;11.20;4.20;;;;;;;3.69;100.00;100026.22;5071691;28;20454;-76
2021/12/07 17:02:36;;;;;;;16.35;5.10;;;;;;;3.67;100.00;100022.16;5071769;28;20123;-73
2021/12/07 17:08:23;;;;;;;11.35;4.32;;;;;;;3.62;100.00;100008.69;5071015;28;20522;-73
2021/12/07 17:14:10;;;;;;;11.73;3.85;;;;;;;3.61;100.00;99997.28;5070947;28;20047;-73
2021/12/07 17:19:57;;;;;;;7.82;3.63;;;;;;;3.67;100.00;99962.16;5071030;28;20127;-75
2021/12/07 17:25:44;;;;;;;10.75;4.00;;;;;;;3.58;100.00;99933.44;5074338;28;20628;-74
2021/12/07 17:31:31;;;;;;;13.60;4.25;;;;;;;3.51;100.00;99911.41;5074577;28;20051;-76
2021/12/07 17:37:18;;;;;;;12.05;4.43;;;;;;;3.51;100.00;99924.63;5074174;28;20055;-74
2021/12/07 17:43:06;;;;;;;14.93;4.47;;;;;;;3.58;100.00;99870.81;5074436;28;20523;-77
2021/12/07 17:48:53;;;;;;;8.65;3.95;;;;;;;3.43;100.00;99847.09;5073479;28;20178;-76
2021/12/07 17:54:41;;;;;;;12.95;4.50;;;;;;;3.45;100.00;99846.09;5073857;28;20042;-74
2021/12/07 18:00:30;;;;;;;20.02;6.15;;;;;;;3.28;100.00;99825.28;5075702;28;20047;-77
2021/12/07 18:06:17;;;;;;;8.40;4.07;;;;;;;3.27;100.00;99820.19;5073621;28;20098;-76
2021/12/07 18:12:05;;;;;;;10.70;4.15;;;;;;;3.25;100.00;99801.88;5076210;28;20075;-77
2021/12/07 18:17:53;;;;;;;13.00;5.32;;;;;;;3.27;100.00;99781.38;5073375;28;20047;-73
2021/12/07 18:23:41;;;;;;;9.80;4.28;;;;;;;3.30;100.00;99746.63;5076476;28;20095;-74
2021/12/07 18:29:28;;;;;;;12.13;4.85;;;;;;;3.29;100.00;99733.63;5073253;28;20075;-76
2021/12/07 18:35:15;;;;;;;9.00;4.40;;;;;;;3.38;100.00;99717.41;5073131;28;20052;-75
2021/12/07 18:41:05;;;;;;;14.38;6.93;;;;;;;3.39;100.00;99686.53;5073177;28;20044;-76
2021/12/07 18:46:52;;;;;;;15.65;5.88;;;;;;;3.37;100.00;99665.59;5073059;28;20063;-76
2021/12/07 18:52:40;;;;;;;9.90;3.85;;;;;;;3.48;100.00;99663.41;5072903;28;20075;-73
2021/12/07 18:58:27;;;;;;;9.05;4.13;;;;;;;3.54;99.79;99647.59;5072908;28;20043;-75
2021/12/07 19:07:39;;;;;;;8.02;3.90;;;;;;;3.57;99.84;99585.59;5072719;28;20090;-73
2021/12/07 19:13:28;;;;;;;11.60;4.78;;;;;;;3.70;98.79;99604.91;5072671;28;20043;-75
2021/12/07 19:19:15;;;;;;;13.95;4.75;;;;;;;3.61;99.54;99571.75;5073077;28;20496;-74
2021/12/07 19:25:04;;;;;;;16.60;5.90;;;;;;;3.58;100.00;99552.84;5072866;28;20047;-75
2021/12/07 19:30:53;;;;;;;12.70;6.47;;;;;;;3.53;100.00;99555.28;5072656;28;20052;-74
2021/12/07 19:36:41;;;;;;;15.63;6.68;;;;;;;3.37;100.00;99536.13;5072432;28;20520;-74
2021/12/07 19:42:29;;;;;;;10.07;4.30;;;;;;;3.14;100.00;99511.88;5072470;28;20479;-75
2021/12/07 19:48:18;;;;;;;15.75;5.05;;;;;;;3.18;100.00;99488.53;5072124;28;20039;-74
2021/12/07 19:51:00;;;;;;;14.88;5.70;;;;;;;3.10;100.00;99489.53;5075117;28;20052;-74
2021/12/07 19:56:47;;;;;;;10.77;4.82;;;;;;;2.92;100.00;99474.28;5072434;28;20500;-75
2021/12/07 20:02:35;;;;;;;12.25;5.97;;;;;;;3.02;100.00;99481.81;5072257;28;20039;-74
2021/12/07 20:08:23;;;;;;;17.45;5.57;;;;;;;2.99;100.00;99492.75;5072204;28;20487;-75
2021/12/07 20:14:17;;;;;;;12.40;5.07;;;;;;;2.85;100.00;99486.59;5072213;28;20055;-73
2021/12/07 20:20:07;;;;;;;10.18;4.03;;;;;;;2.98;100.00;99509.63;5071712;28;20090;-75
2021/12/07 20:25:54;;;;;;;11.13;4.50;;;;;;;2.83;100.00;99527.41;5071840;28;20047;-77
2021/12/07 20:31:41;;;;;;;17.30;7.65;;;;;;;2.93;100.00;99520.78;5071955;28;20042;-75
2021/12/07 20:37:30;;;;;;;11.43;5.18;;;;;;;2.77;100.00;99492.88;5071875;28;20083;-76
2021/12/07 20:43:17;;;;;;;11.50;5.03;;;;;;;2.70;100.00;99475.41;5074698;28;20051;-77
2021/12/07 20:49:05;;;;;;;10.48;4.60;;;;;;;2.73;100.00;99449.41;5071790;28;20043;-76
2021/12/07 20:54:52;;;;;;;11.25;5.63;;;;;;;2.62;100.00;99391.94;5071705;28;20043;-77
2021/12/07 20:57:19;;;;;;;14.05;6.40;;;;;;;2.68;100.00;99404.34;5074173;28;20420;-76
2021/12/07 21:06:54;;;;;;;11.95;5.97;;;;;;;2.74;100.00;99336.75;5075057;28;20377;-77
2021/12/07 21:12:42;;;;;;;9.48;5.28;;;;;;;2.65;100.00;99309.75;5074599;28;20063;-75
2021/12/07 21:18:29;;;;;;;13.75;5.10;;;;;;;2.67;100.00;99285.81;5074955;28;20106;-77
2021/12/07 21:20:55;;;;;;;16.20;6.85;;;;;;;2.64;100.00;99271.19;5074519;28;20103;-76
2021/12/07 21:26:42;;;;;;;13.27;6.38;;;;;;;2.70;100.00;99240.53;5074651;28;20448;-77
2021/12/07 21:29:08;;;;;;;11.13;6.20;;;;;;;2.64;100.00;99242.16;5077512;28;20147;-77
2021/12/07 21:31:38;;;;;;;15.50;6.72;;;;;;;2.71;100.00;99239.53;5056505;28;20029;-75
2021/12/07 21:40:47;;;;;;;18.42;7.72;;;;;;;2.77;100.00;99199.94;5074555;28;20040;-76
2021/12/07 21:46:34;;;;;;;12.10;5.95;;;;;;;2.82;100.00;99201.94;5074645;28;20047;-76
2021/12/07 21:52:21;;;;;;;15.88;7.15;;;;;;;2.84;100.00;99159.53;5074326;28;20163;-75
2021/12/07 21:58:10;;;;;;;20.70;7.32;;;;;;;2.91;100.00;99150.59;5074625;28;20098;-76
2021/12/07 22:03:57;;;;;;;12.32;5.40;;;;;;;2.91;100.00;99161.16;5074308;28;20035;-76
2021/12/07 22:09:44;;;;;;;12.38;6.03;;;;;;;3.00;100.00;99164.38;5074286;28;20066;-75
2021/12/07 22:18:56;;;;;;;15.02;6.10;;;;;;;2.91;100.00;99166.44;5073978;28;20099;-76
2021/12/07 22:24:43;;;;;;;17.50;6.60;;;;;;;3.05;100.00;99198.88;5074025;28;20052;-78
2021/12/07 22:27:10;;;;;;;14.52;5.53;;;;;;;3.04;100.00;99200.72;5058830;28;20037;-76
2021/12/07 22:32:57;;;;;;;16.63;7.97;;;;;;;3.03;100.00;99187.72;5073469;28;20043;-76
2021/12/07 22:38:43;;;;;;;14.55;5.57;;;;;;;2.97;100.00;99180.63;5073263;28;20124;-76
2021/12/07 22:44:31;;;;;;;15.40;5.93;;;;;;;2.95;100.00;99185.31;5073479;28;20542;-75
2021/12/07 22:50:18;;;;;;;10.20;6.82;;;;;;;2.96;100.00;99185.09;5073247;28;20051;-77
2021/12/07 22:56:05;;;;;;;15.15;6.38;;;;;;;3.01;100.00;99182.66;5073346;28;20107;-76
2021/12/07 23:01:52;;;;;;;11.90;5.60;;;;;;;2.96;100.00;99166.63;5073196;28;20124;-76
2021/12/07 23:07:39;;;;;;;9.80;4.80;;;;;;;3.06;100.00;99161.72;5073010;28;20110;-78
2021/12/07 23:13:26;;;;;;;14.15;6.18;;;;;;;3.07;100.00;99151.97;5072679;28;20091;-77
2021/12/07 23:19:14;;;;;;;13.18;5.43;;;;;;;3.09;100.00;99147.28;5071702;28;20040;-77
2021/12/07 23:21:43;;;;;;;11.98;4.90;;;;;;;3.06;100.00;99137.16;5054293;28;20469;-78
2021/12/07 23:27:30;;;;;;;11.10;5.70;;;;;;;3.13;100.00;99127.38;5072598;28;20087;-79
2021/12/07 23:29:55;;;;;;;17.08;6.88;;;;;;;3.14;100.00;99115.78;5075293;28;20040;-76
2021/12/07 23:32:21;;;;;;;13.38;5.32;;;;;;;3.14;100.00;99117.63;5072441;28;20091;-79
2021/12/07 23:38:08;;;;;;;10.25;4.43;;;;;;;3.22;100.00;99109.47;5072252;28;20175;-79
2021/12/07 23:43:57;;;;;;;15.68;6.03;;;;;;;3.35;100.00;99110.22;5072445;28;20543;-77
2021/12/07 23:49:44;;;;;;;13.82;4.90;;;;;;;3.44;100.00;99110.78;5072012;28;20079;-79
2021/12/07 23:52:10;;;;;;;11.35;4.53;;;;;;;3.48;100.00;99098.81;5040339;28;20052;-78
2021/12/07 23:54:36;;;;;;;13.50;5.68;;;;;;;3.47;100.00;99088.41;5071660;28;20461;-77
